METAR Data
IDs: Format: Raw Decoded Include TAF

Data at: 0125 UTC 06 Dec 2019

METAR for:KFME (Fort Meade/Tipton Fl, MD, US)
Text:KFME 060115Z AUTO 00000KT 10SM CLR 00/M03 A3015 RMK AO1
Temperature: 0.0°C ( 32°F)
Dewpoint: -3.0°C ( 27°F) [RH = 80%]
Pressure (altimeter):30.15 inches Hg (1021.1 mb)
Winds:calm
Visibility:10 or more sm (16+ km)
Ceiling:at least 12,000 feet AGL
Clouds:sky clear below 12,000 feet AGL
QC Flag:automated observation with no human augmentation